sensor_id;sensor_type;location;lat;lon;timestamp;P1;durP1;ratioP1;P2;durP2;ratioP2
69956;SDS011;57283;54.816;9.482;2022-09-30T03:01:16;10.32;;;4.97;;
69956;SDS011;57283;54.816;9.482;2022-09-30T03:03:45;9.98;;;4.85;;
69956;SDS011;57283;54.816;9.482;2022-09-30T03:06:13;9.65;;;5.20;;
69956;SDS011;57283;54.816;9.482;2022-09-30T03:08:41;9.20;;;5.43;;
69956;SDS011;57283;54.816;9.482;2022-09-30T03:11:10;8.63;;;4.82;;
69956;SDS011;57283;54.816;9.482;2022-09-30T03:16:28;7.90;;;4.80;;
69956;SDS011;57283;54.816;9.482;2022-09-30T03:19:03;10.23;;;5.03;;
69956;SDS011;57283;54.816;9.482;2022-09-30T03:21:34;9.13;;;5.03;;
69956;SDS011;57283;54.816;9.482;2022-09-30T03:24:17;9.32;;;4.85;;
69956;SDS011;57283;54.816;9.482;2022-09-30T03:26:52;9.00;;;5.00;;
69956;SDS011;57283;54.816;9.482;2022-09-30T03:29:25;10.32;;;5.30;;
69956;SDS011;57283;54.816;9.482;2022-09-30T03:32:02;9.68;;;5.38;;
69956;SDS011;57283;54.816;9.482;2022-09-30T03:34:34;8.90;;;5.00;;
69956;SDS011;57283;54.816;9.482;2022-09-30T03:37:07;10.63;;;5.30;;
69956;SDS011;57283;54.816;9.482;2022-09-30T03:39:38;10.07;;;4.95;;
69956;SDS011;57283;54.816;9.482;2022-09-30T03:42:12;9.82;;;4.68;;
69956;SDS011;57283;54.816;9.482;2022-09-30T03:44:50;9.43;;;4.90;;
69956;SDS011;57283;54.816;9.482;2022-09-30T03:47:23;9.77;;;4.67;;
69956;SDS011;57283;54.816;9.482;2022-09-30T03:49:53;9.02;;;4.97;;
69956;SDS011;57283;54.816;9.482;2022-09-30T03:52:22;8.05;;;4.80;;
69956;SDS011;57283;54.816;9.482;2022-09-30T03:54:51;8.82;;;4.60;;
69956;SDS011;57283;54.816;9.482;2022-09-30T03:57:20;10.18;;;5.03;;
69956;SDS011;57283;54.816;9.482;2022-09-30T03:59:47;10.13;;;5.07;;
69956;SDS011;57283;54.816;9.482;2022-09-30T04:02:15;9.32;;;5.10;;
69956;SDS011;57283;54.816;9.482;2022-09-30T04:04:44;8.77;;;5.38;;
69956;SDS011;57283;54.816;9.482;2022-09-30T04:07:11;8.85;;;4.95;;
69956;SDS011;57283;54.816;9.482;2022-09-30T04:09:39;9.50;;;4.90;;
69956;SDS011;57283;54.816;9.482;2022-09-30T04:12:07;9.63;;;5.17;;
69956;SDS011;57283;54.816;9.482;2022-09-30T04:14:34;11.15;;;5.20;;
69956;SDS011;57283;54.816;9.482;2022-09-30T04:17:02;10.77;;;5.45;;
69956;SDS011;57283;54.816;9.482;2022-09-30T04:19:30;8.23;;;4.68;;
69956;SDS011;57283;54.816;9.482;2022-09-30T04:22:04;10.00;;;5.15;;
69956;SDS011;57283;54.816;9.482;2022-09-30T04:24:32;11.03;;;4.97;;
69956;SDS011;57283;54.816;9.482;2022-09-30T04:26:59;10.65;;;5.20;;
69956;SDS011;57283;54.816;9.482;2022-09-30T04:29:27;10.18;;;5.25;;
69956;SDS011;57283;54.816;9.482;2022-09-30T04:31:55;10.05;;;4.90;;
69956;SDS011;57283;54.816;9.482;2022-09-30T04:34:23;10.23;;;4.88;;
69956;SDS011;57283;54.816;9.482;2022-09-30T04:36:50;10.30;;;5.87;;
69956;SDS011;57283;54.816;9.482;2022-09-30T04:39:19;9.38;;;4.97;;
69956;SDS011;57283;54.816;9.482;2022-09-30T04:41:47;11.07;;;5.20;;
69956;SDS011;57283;54.816;9.482;2022-09-30T04:44:14;12.30;;;5.47;;
69956;SDS011;57283;54.816;9.482;2022-09-30T04:46:42;10.60;;;5.32;;
69956;SDS011;57283;54.816;9.482;2022-09-30T04:49:09;10.00;;;5.03;;
69956;SDS011;57283;54.816;9.482;2022-09-30T04:51:37;11.55;;;6.05;;
69956;SDS011;57283;54.816;9.482;2022-09-30T04:54:09;10.63;;;5.65;;
69956;SDS011;57283;54.816;9.482;2022-09-30T04:56:37;11.40;;;5.50;;
69956;SDS011;57283;54.816;9.482;2022-09-30T04:59:05;11.93;;;6.05;;
69956;SDS011;57283;54.816;9.482;2022-09-30T05:01:33;10.93;;;5.03;;
69956;SDS011;57283;54.816;9.482;2022-09-30T05:04:00;9.43;;;5.25;;
69956;SDS011;57283;54.816;9.482;2022-09-30T05:06:28;14.02;;;5.65;;
69956;SDS011;57283;54.816;9.482;2022-09-30T05:08:55;11.15;;;5.47;;
69956;SDS011;57283;54.816;9.482;2022-09-30T05:11:23;11.60;;;5.32;;
69956;SDS011;57283;54.816;9.482;2022-09-30T05:13:52;10.90;;;5.80;;
69956;SDS011;57283;54.816;9.482;2022-09-30T05:16:22;11.25;;;5.55;;
69956;SDS011;57283;54.816;9.482;2022-09-30T05:18:49;11.13;;;5.65;;
69956;SDS011;57283;54.816;9.482;2022-09-30T05:21:17;10.95;;;5.10;;
69956;SDS011;57283;54.816;9.482;2022-09-30T05:23:46;9.88;;;5.07;;
69956;SDS011;57283;54.816;9.482;2022-09-30T05:26:13;11.23;;;5.00;;
69956;SDS011;57283;54.816;9.482;2022-09-30T05:28:41;9.82;;;4.85;;
69956;SDS011;57283;54.816;9.482;2022-09-30T05:31:10;9.75;;;5.03;;
69956;SDS011;57283;54.816;9.482;2022-09-30T05:33:39;10.30;;;5.15;;
69956;SDS011;57283;54.816;9.482;2022-09-30T05:36:07;10.25;;;5.25;;
69956;SDS011;57283;54.816;9.482;2022-09-30T05:38:35;9.90;;;4.70;;
69956;SDS011;57283;54.816;9.482;2022-09-30T05:41:06;10.13;;;5.25;;
69956;SDS011;57283;54.816;9.482;2022-09-30T05:43:36;11.80;;;5.25;;
69956;SDS011;57283;54.816;9.482;2022-09-30T05:46:04;7.65;;;4.22;;
69956;SDS011;57283;54.816;9.482;2022-09-30T05:48:33;9.75;;;4.90;;
69956;SDS011;57283;54.816;9.482;2022-09-30T05:51:00;9.43;;;4.43;;
69956;SDS011;57283;54.816;9.482;2022-09-30T05:53:28;9.88;;;4.60;;
69956;SDS011;57283;54.816;9.482;2022-09-30T05:55:57;9.60;;;5.32;;
69956;SDS011;57283;54.816;9.482;2022-09-30T05:58:25;11.27;;;5.30;;
69956;SDS011;57283;54.816;9.482;2022-09-30T06:00:53;8.73;;;5.00;;
69956;SDS011;57283;54.816;9.482;2022-09-30T06:03:21;11.03;;;5.40;;
69956;SDS011;57283;54.816;9.482;2022-09-30T06:05:55;10.75;;;5.57;;
69956;SDS011;57283;54.816;9.482;2022-09-30T06:08:23;11.25;;;5.68;;
69956;SDS011;57283;54.816;9.482;2022-09-30T06:10:51;10.73;;;5.25;;
69956;SDS011;57283;54.816;9.482;2022-09-30T06:13:18;9.85;;;5.05;;
69956;SDS011;57283;54.816;9.482;2022-09-30T06:15:53;10.07;;;5.20;;
69956;SDS011;57283;54.816;9.482;2022-09-30T06:18:22;10.18;;;5.20;;
69956;SDS011;57283;54.816;9.482;2022-09-30T06:20:50;9.80;;;5.00;;
69956;SDS011;57283;54.816;9.482;2022-09-30T06:23:20;9.98;;;4.88;;
69956;SDS011;57283;54.816;9.482;2022-09-30T06:25:48;10.35;;;5.05;;
69956;SDS011;57283;54.816;9.482;2022-09-30T06:28:16;9.37;;;4.57;;
69956;SDS011;57283;54.816;9.482;2022-09-30T06:30:44;9.25;;;4.85;;
69956;SDS011;57283;54.816;9.482;2022-09-30T06:33:12;11.32;;;5.10;;
69956;SDS011;57283;54.816;9.482;2022-09-30T06:35:40;10.02;;;5.07;;
69956;SDS011;57283;54.816;9.482;2022-09-30T06:38:08;9.65;;;4.53;;
69956;SDS011;57283;54.816;9.482;2022-09-30T06:40:36;9.50;;;4.80;;
69956;SDS011;57283;54.816;9.482;2022-09-30T06:43:04;10.18;;;4.82;;
69956;SDS011;57283;54.816;9.482;2022-09-30T06:45:34;10.90;;;5.18;;
69956;SDS011;57283;54.816;9.482;2022-09-30T06:48:02;11.00;;;5.10;;
69956;SDS011;57283;54.816;9.482;2022-09-30T06:50:31;9.25;;;4.80;;
69956;SDS011;57283;54.816;9.482;2022-09-30T06:52:58;10.53;;;4.87;;
69956;SDS011;57283;54.816;9.482;2022-09-30T06:55:26;11.27;;;4.80;;
69956;SDS011;57283;54.816;9.482;2022-09-30T06:57:55;9.80;;;4.90;;
69956;SDS011;57283;54.816;9.482;2022-09-30T07:00:24;9.77;;;4.70;;
69956;SDS011;57283;54.816;9.482;2022-09-30T07:02:53;8.32;;;4.57;;
69956;SDS011;57283;54.816;9.482;2022-09-30T07:05:22;11.27;;;5.17;;
69956;SDS011;57283;54.816;9.482;2022-09-30T07:07:50;9.65;;;4.65;;
69956;SDS011;57283;54.816;9.482;2022-09-30T07:10:18;10.65;;;4.40;;
69956;SDS011;57283;54.816;9.482;2022-09-30T07:12:47;9.43;;;4.35;;
69956;SDS011;57283;54.816;9.482;2022-09-30T07:15:17;10.13;;;4.43;;
69956;SDS011;57283;54.816;9.482;2022-09-30T07:17:48;11.03;;;4.20;;
69956;SDS011;57283;54.816;9.482;2022-09-30T07:20:16;9.30;;;4.05;;
69956;SDS011;57283;54.816;9.482;2022-09-30T07:22:44;7.93;;;3.92;;
69956;SDS011;57283;54.816;9.482;2022-09-30T07:25:13;8.38;;;4.60;;
69956;SDS011;57283;54.816;9.482;2022-09-30T07:27:41;9.32;;;4.00;;
69956;SDS011;57283;54.816;9.482;2022-09-30T07:30:08;7.50;;;3.60;;
69956;SDS011;57283;54.816;9.482;2022-09-30T07:32:49;9.95;;;3.75;;
69956;SDS011;57283;54.816;9.482;2022-09-30T07:35:16;6.95;;;3.45;;
69956;SDS011;57283;54.816;9.482;2022-09-30T07:37:45;6.97;;;3.47;;
69956;SDS011;57283;54.816;9.482;2022-09-30T07:40:12;8.23;;;3.90;;
69956;SDS011;57283;54.816;9.482;2022-09-30T07:42:40;7.03;;;3.80;;
69956;SDS011;57283;54.816;9.482;2022-09-30T07:45:11;6.50;;;3.60;;
69956;SDS011;57283;54.816;9.482;2022-09-30T07:47:42;6.53;;;3.70;;
69956;SDS011;57283;54.816;9.482;2022-09-30T07:50:16;8.63;;;3.70;;
69956;SDS011;57283;54.816;9.482;2022-09-30T07:52:43;5.70;;;3.13;;
69956;SDS011;57283;54.816;9.482;2022-09-30T07:55:11;19.00;;;3.80;;
69956;SDS011;57283;54.816;9.482;2022-09-30T07:57:38;7.35;;;3.53;;
69956;SDS011;57283;54.816;9.482;2022-09-30T08:00:06;5.55;;;3.20;;
69956;SDS011;57283;54.816;9.482;2022-09-30T08:02:54;6.93;;;3.60;;
69956;SDS011;57283;54.816;9.482;2022-09-30T08:05:23;6.70;;;3.78;;
69956;SDS011;57283;54.816;9.482;2022-09-30T08:07:51;7.43;;;3.40;;
69956;SDS011;57283;54.816;9.482;2022-09-30T08:10:18;6.95;;;3.80;;
69956;SDS011;57283;54.816;9.482;2022-09-30T08:12:51;6.40;;;3.78;;
69956;SDS011;57283;54.816;9.482;2022-09-30T08:15:24;6.00;;;3.38;;
69956;SDS011;57283;54.816;9.482;2022-09-30T08:17:51;6.35;;;3.65;;
69956;SDS011;57283;54.816;9.482;2022-09-30T08:20:19;5.80;;;3.33;;
69956;SDS011;57283;54.816;9.482;2022-09-30T08:22:52;6.28;;;3.10;;
69956;SDS011;57283;54.816;9.482;2022-09-30T08:25:19;5.25;;;3.08;;
69956;SDS011;57283;54.816;9.482;2022-09-30T08:27:47;7.05;;;3.33;;
69956;SDS011;57283;54.816;9.482;2022-09-30T08:30:15;6.15;;;3.42;;
69956;SDS011;57283;54.816;9.482;2022-09-30T08:32:42;7.63;;;3.30;;
69956;SDS011;57283;54.816;9.482;2022-09-30T08:35:10;5.13;;;3.17;;
69956;SDS011;57283;54.816;9.482;2022-09-30T08:37:37;9.27;;;3.50;;
69956;SDS011;57283;54.816;9.482;2022-09-30T08:40:07;4.72;;;2.97;;
69956;SDS011;57283;54.816;9.482;2022-09-30T08:42:44;5.93;;;3.15;;
69956;SDS011;57283;54.816;9.482;2022-09-30T08:45:27;5.00;;;2.97;;
69956;SDS011;57283;54.816;9.482;2022-09-30T08:47:59;5.22;;;3.10;;
69956;SDS011;57283;54.816;9.482;2022-09-30T08:50:29;5.68;;;3.70;;
69956;SDS011;57283;54.816;9.482;2022-09-30T08:53:00;5.10;;;3.33;;
69956;SDS011;57283;54.816;9.482;2022-09-30T08:55:32;5.05;;;3.10;;
69956;SDS011;57283;54.816;9.482;2022-09-30T08:58:01;4.60;;;2.50;;
69956;SDS011;57283;54.816;9.482;2022-09-30T09:00:30;4.95;;;2.75;;
69956;SDS011;57283;54.816;9.482;2022-09-30T09:02:58;4.75;;;3.28;;
69956;SDS011;57283;54.816;9.482;2022-09-30T09:05:29;4.80;;;3.20;;
69956;SDS011;57283;54.816;9.482;2022-09-30T09:08:00;4.53;;;2.83;;
69956;SDS011;57283;54.816;9.482;2022-09-30T09:10:35;5.73;;;3.00;;
69956;SDS011;57283;54.816;9.482;2022-09-30T09:13:08;5.45;;;2.88;;
69956;SDS011;57283;54.816;9.482;2022-09-30T09:15:41;4.63;;;2.78;;
69956;SDS011;57283;54.816;9.482;2022-09-30T09:20:57;5.28;;;2.97;;
69956;SDS011;57283;54.816;9.482;2022-09-30T09:23:26;4.60;;;2.70;;
69956;SDS011;57283;54.816;9.482;2022-09-30T09:25:55;4.80;;;3.10;;
69956;SDS011;57283;54.816;9.482;2022-09-30T09:28:24;5.55;;;2.50;;
69956;SDS011;57283;54.816;9.482;2022-09-30T09:30:56;6.68;;;2.63;;
69956;SDS011;57283;54.816;9.482;2022-09-30T09:33:26;5.38;;;2.85;;
69956;SDS011;57283;54.816;9.482;2022-09-30T09:35:58;3.73;;;2.30;;
69956;SDS011;57283;54.816;9.482;2022-09-30T09:38:32;3.85;;;2.50;;
69956;SDS011;57283;54.816;9.482;2022-09-30T09:41:06;4.18;;;2.50;;
69956;SDS011;57283;54.816;9.482;2022-09-30T09:43:39;4.43;;;2.65;;
69956;SDS011;57283;54.816;9.482;2022-09-30T09:46:11;4.00;;;2.22;;
69956;SDS011;57283;54.816;9.482;2022-09-30T09:48:41;4.10;;;2.43;;
69956;SDS011;57283;54.816;9.482;2022-09-30T09:51:12;3.80;;;2.40;;
69956;SDS011;57283;54.816;9.482;2022-09-30T09:53:42;4.05;;;2.55;;
69956;SDS011;57283;54.816;9.482;2022-09-30T09:56:13;4.22;;;2.38;;
69956;SDS011;57283;54.816;9.482;2022-09-30T09:59:03;3.75;;;2.60;;
69956;SDS011;57283;54.816;9.482;2022-09-30T10:01:31;4.70;;;1.90;;
69956;SDS011;57283;54.816;9.482;2022-09-30T10:06:45;3.92;;;2.33;;
69956;SDS011;57283;54.816;9.482;2022-09-30T10:09:23;3.35;;;2.08;;
69956;SDS011;57283;54.816;9.482;2022-09-30T10:11:59;5.30;;;2.33;;
69956;SDS011;57283;54.816;9.482;2022-09-30T10:14:47;4.87;;;2.57;;
69956;SDS011;57283;54.816;9.482;2022-09-30T10:17:17;4.88;;;1.92;;
69956;SDS011;57283;54.816;9.482;2022-09-30T10:19:47;3.30;;;2.30;;
69956;SDS011;57283;54.816;9.482;2022-09-30T10:22:17;4.45;;;2.90;;
69956;SDS011;57283;54.816;9.482;2022-09-30T10:24:45;4.95;;;2.90;;
69956;SDS011;57283;54.816;9.482;2022-09-30T10:27:26;4.10;;;2.70;;
69956;SDS011;57283;54.816;9.482;2022-09-30T10:29:54;4.15;;;2.40;;
69956;SDS011;57283;54.816;9.482;2022-09-30T10:32:21;4.05;;;2.78;;
69956;SDS011;57283;54.816;9.482;2022-09-30T10:34:53;4.03;;;2.80;;
69956;SDS011;57283;54.816;9.482;2022-09-30T10:37:22;3.58;;;2.30;;
69956;SDS011;57283;54.816;9.482;2022-09-30T10:39:51;3.73;;;1.90;;
69956;SDS011;57283;54.816;9.482;2022-09-30T10:42:22;3.53;;;1.90;;
69956;SDS011;57283;54.816;9.482;2022-09-30T10:44:54;3.47;;;1.90;;
69956;SDS011;57283;54.816;9.482;2022-09-30T10:47:22;3.50;;;2.55;;
69956;SDS011;57283;54.816;9.482;2022-09-30T10:49:52;4.03;;;1.88;;
69956;SDS011;57283;54.816;9.482;2022-09-30T10:52:22;4.00;;;1.90;;
69956;SDS011;57283;54.816;9.482;2022-09-30T10:54:51;3.30;;;1.67;;
69956;SDS011;57283;54.816;9.482;2022-09-30T10:57:20;3.20;;;1.70;;
69956;SDS011;57283;54.816;9.482;2022-09-30T10:59:50;3.92;;;1.70;;
69956;SDS011;57283;54.816;9.482;2022-09-30T11:02:22;3.63;;;1.80;;
69956;SDS011;57283;54.816;9.482;2022-09-30T11:04:54;3.40;;;1.80;;
69956;SDS011;57283;54.816;9.482;2022-09-30T11:07:26;3.10;;;2.00;;
69956;SDS011;57283;54.816;9.482;2022-09-30T11:09:54;3.88;;;1.52;;
69956;SDS011;57283;54.816;9.482;2022-09-30T11:12:26;3.53;;;1.48;;
69956;SDS011;57283;54.816;9.482;2022-09-30T11:14:56;3.90;;;1.42;;
69956;SDS011;57283;54.816;9.482;2022-09-30T11:17:31;3.60;;;1.48;;
69956;SDS011;57283;54.816;9.482;2022-09-30T11:20:05;3.00;;;1.80;;
69956;SDS011;57283;54.816;9.482;2022-09-30T11:22:38;4.10;;;1.60;;
69956;SDS011;57283;54.816;9.482;2022-09-30T11:25:10;4.00;;;1.45;;
69956;SDS011;57283;54.816;9.482;2022-09-30T11:27:42;3.50;;;1.42;;
69956;SDS011;57283;54.816;9.482;2022-09-30T11:30:14;3.00;;;1.50;;
69956;SDS011;57283;54.816;9.482;2022-09-30T11:32:48;3.40;;;1.20;;
69956;SDS011;57283;54.816;9.482;2022-09-30T11:35:22;3.67;;;2.00;;
69956;SDS011;57283;54.816;9.482;2022-09-30T11:37:56;3.05;;;1.40;;
69956;SDS011;57283;54.816;9.482;2022-09-30T11:40:29;3.42;;;2.15;;
69956;SDS011;57283;54.816;9.482;2022-09-30T11:43:00;3.20;;;2.00;;
69956;SDS011;57283;54.816;9.482;2022-09-30T11:45:37;3.63;;;2.17;;
69956;SDS011;57283;54.816;9.482;2022-09-30T11:48:19;4.00;;;1.65;;
69956;SDS011;57283;54.816;9.482;2022-09-30T11:50:52;3.42;;;2.15;;
69956;SDS011;57283;54.816;9.482;2022-09-30T11:53:26;3.28;;;2.20;;
69956;SDS011;57283;54.816;9.482;2022-09-30T11:56:04;3.88;;;2.50;;
69956;SDS011;57283;54.816;9.482;2022-09-30T11:58:33;5.50;;;3.20;;
69956;SDS011;57283;54.816;9.482;2022-09-30T12:01:11;3.47;;;2.00;;
69956;SDS011;57283;54.816;9.482;2022-09-30T12:03:41;3.08;;;1.55;;
69956;SDS011;57283;54.816;9.482;2022-09-30T12:06:21;3.58;;;2.00;;
69956;SDS011;57283;54.816;9.482;2022-09-30T12:08:50;4.47;;;2.40;;
69956;SDS011;57283;54.816;9.482;2022-09-30T12:11:27;3.43;;;2.43;;
69956;SDS011;57283;54.816;9.482;2022-09-30T12:13:58;2.90;;;1.70;;
69956;SDS011;57283;54.816;9.482;2022-09-30T12:16:27;3.25;;;1.45;;
69956;SDS011;57283;54.816;9.482;2022-09-30T12:18:59;6.03;;;2.10;;
69956;SDS011;57283;54.816;9.482;2022-09-30T12:21:30;3.58;;;2.13;;
69956;SDS011;57283;54.816;9.482;2022-09-30T12:24:01;3.95;;;2.10;;
69956;SDS011;57283;54.816;9.482;2022-09-30T12:26:29;3.47;;;2.20;;
69956;SDS011;57283;54.816;9.482;2022-09-30T12:28:58;3.10;;;1.63;;
69956;SDS011;57283;54.816;9.482;2022-09-30T12:31:49;3.40;;;2.65;;
69956;SDS011;57283;54.816;9.482;2022-09-30T12:34:24;4.03;;;2.25;;
69956;SDS011;57283;54.816;9.482;2022-09-30T12:37:00;3.25;;;1.70;;
69956;SDS011;57283;54.816;9.482;2022-09-30T12:39:40;3.07;;;1.30;;
69956;SDS011;57283;54.816;9.482;2022-09-30T12:42:22;3.15;;;1.95;;
69956;SDS011;57283;54.816;9.482;2022-09-30T12:47:57;3.80;;;1.98;;
69956;SDS011;57283;54.816;9.482;2022-09-30T12:50:27;4.38;;;1.50;;
69956;SDS011;57283;54.816;9.482;2022-09-30T12:52:55;4.57;;;2.37;;
69956;SDS011;57283;54.816;9.482;2022-09-30T12:55:26;4.00;;;2.08;;
69956;SDS011;57283;54.816;9.482;2022-09-30T12:57:57;3.40;;;2.00;;
69956;SDS011;57283;54.816;9.482;2022-09-30T13:00:26;4.40;;;2.38;;
69956;SDS011;57283;54.816;9.482;2022-09-30T13:02:56;6.82;;;2.97;;
69956;SDS011;57283;54.816;9.482;2022-09-30T13:05:46;5.93;;;2.70;;
69956;SDS011;57283;54.816;9.482;2022-09-30T13:08:31;3.70;;;2.22;;
69956;SDS011;57283;54.816;9.482;2022-09-30T13:11:03;3.85;;;2.17;;
69956;SDS011;57283;54.816;9.482;2022-09-30T13:13:31;4.15;;;1.90;;
69956;SDS011;57283;54.816;9.482;2022-09-30T13:16:02;4.15;;;1.67;;
69956;SDS011;57283;54.816;9.482;2022-09-30T13:21:20;3.63;;;1.73;;
69956;SDS011;57283;54.816;9.482;2022-09-30T13:23:49;3.58;;;1.50;;
69956;SDS011;57283;54.816;9.482;2022-09-30T13:32:08;4.90;;;1.50;;
69956;SDS011;57283;54.816;9.482;2022-09-30T13:34:54;4.10;;;1.50;;
69956;SDS011;57283;54.816;9.482;2022-09-30T13:37:31;3.08;;;1.40;;
69956;SDS011;57283;54.816;9.482;2022-09-30T13:39:59;4.60;;;1.60;;
69956;SDS011;57283;54.816;9.482;2022-09-30T13:42:27;3.28;;;1.48;;
69956;SDS011;57283;54.816;9.482;2022-09-30T13:44:58;3.20;;;1.70;;
69956;SDS011;57283;54.816;9.482;2022-09-30T13:47:28;5.38;;;1.70;;
69956;SDS011;57283;54.816;9.482;2022-09-30T13:49:58;5.75;;;2.00;;
69956;SDS011;57283;54.816;9.482;2022-09-30T13:52:27;4.95;;;1.63;;
69956;SDS011;57283;54.816;9.482;2022-09-30T13:54:57;4.68;;;1.45;;
69956;SDS011;57283;54.816;9.482;2022-09-30T13:57:26;4.30;;;1.90;;
69956;SDS011;57283;54.816;9.482;2022-09-30T13:59:59;4.65;;;1.60;;
69956;SDS011;57283;54.816;9.482;2022-09-30T14:05:44;3.85;;;1.45;;
69956;SDS011;57283;54.816;9.482;2022-09-30T14:08:18;3.50;;;1.58;;
69956;SDS011;57283;54.816;9.482;2022-09-30T14:11:00;5.00;;;1.57;;
69956;SDS011;57283;54.816;9.482;2022-09-30T14:13:34;3.83;;;1.40;;
69956;SDS011;57283;54.816;9.482;2022-09-30T14:19:02;3.58;;;1.52;;
69956;SDS011;57283;54.816;9.482;2022-09-30T14:21:33;3.75;;;1.50;;
69956;SDS011;57283;54.816;9.482;2022-09-30T14:24:02;3.17;;;1.40;;
69956;SDS011;57283;54.816;9.482;2022-09-30T14:26:36;4.32;;;1.60;;
69956;SDS011;57283;54.816;9.482;2022-09-30T14:29:07;2.90;;;1.30;;
69956;SDS011;57283;54.816;9.482;2022-09-30T14:31:41;3.67;;;1.10;;
69956;SDS011;57283;54.816;9.482;2022-09-30T14:34:10;3.92;;;1.50;;
69956;SDS011;57283;54.816;9.482;2022-09-30T14:36:38;3.90;;;1.40;;
69956;SDS011;57283;54.816;9.482;2022-09-30T14:39:09;3.67;;;1.20;;
69956;SDS011;57283;54.816;9.482;2022-09-30T14:41:40;3.25;;;1.30;;
69956;SDS011;57283;54.816;9.482;2022-09-30T14:44:13;4.50;;;1.42;;
69956;SDS011;57283;54.816;9.482;2022-09-30T14:46:43;5.43;;;1.50;;
69956;SDS011;57283;54.816;9.482;2022-09-30T14:49:12;4.50;;;1.70;;
69956;SDS011;57283;54.816;9.482;2022-09-30T14:51:42;4.10;;;1.60;;
69956;SDS011;57283;54.816;9.482;2022-09-30T14:54:14;3.05;;;1.35;;
69956;SDS011;57283;54.816;9.482;2022-09-30T14:56:44;3.88;;;1.40;;
69956;SDS011;57283;54.816;9.482;2022-09-30T14:59:15;3.88;;;1.40;;
69956;SDS011;57283;54.816;9.482;2022-09-30T15:01:42;5.03;;;1.40;;
69956;SDS011;57283;54.816;9.482;2022-09-30T15:04:12;3.85;;;1.30;;
69956;SDS011;57283;54.816;9.482;2022-09-30T15:06:41;3.85;;;1.40;;
69956;SDS011;57283;54.816;9.482;2022-09-30T15:09:13;3.40;;;1.30;;
69956;SDS011;57283;54.816;9.482;2022-09-30T15:11:43;3.70;;;1.30;;
69956;SDS011;57283;54.816;9.482;2022-09-30T15:14:12;4.40;;;1.43;;
69956;SDS011;57283;54.816;9.482;2022-09-30T15:16:46;3.45;;;1.48;;
69956;SDS011;57283;54.816;9.482;2022-09-30T15:19:16;3.58;;;1.40;;
69956;SDS011;57283;54.816;9.482;2022-09-30T15:21:44;5.20;;;1.75;;
69956;SDS011;57283;54.816;9.482;2022-09-30T15:24:13;4.32;;;1.50;;
69956;SDS011;57283;54.816;9.482;2022-09-30T15:26:41;4.10;;;1.50;;
69956;SDS011;57283;54.816;9.482;2022-09-30T15:29:11;3.95;;;1.23;;
69956;SDS011;57283;54.816;9.482;2022-09-30T15:31:40;4.40;;;1.60;;
69956;SDS011;57283;54.816;9.482;2022-09-30T15:34:12;3.88;;;1.40;;
69956;SDS011;57283;54.816;9.482;2022-09-30T15:36:46;4.07;;;1.45;;
69956;SDS011;57283;54.816;9.482;2022-09-30T15:39:17;6.27;;;1.60;;
69956;SDS011;57283;54.816;9.482;2022-09-30T15:41:46;4.20;;;1.60;;
69956;SDS011;57283;54.816;9.482;2022-09-30T15:44:16;4.20;;;1.48;;
69956;SDS011;57283;54.816;9.482;2022-09-30T15:46:59;3.70;;;1.40;;
69956;SDS011;57283;54.816;9.482;2022-09-30T15:49:31;4.50;;;1.65;;
69956;SDS011;57283;54.816;9.482;2022-09-30T15:52:20;4.50;;;1.70;;
69956;SDS011;57283;54.816;9.482;2022-09-30T15:54:50;3.10;;;1.20;;
69956;SDS011;57283;54.816;9.482;2022-09-30T16:00:03;3.88;;;1.20;;
69956;SDS011;57283;54.816;9.482;2022-09-30T16:02:33;3.20;;;1.30;;
69956;SDS011;57283;54.816;9.482;2022-09-30T16:05:01;4.27;;;1.40;;
69956;SDS011;57283;54.816;9.482;2022-09-30T16:07:29;3.58;;;1.25;;
69956;SDS011;57283;54.816;9.482;2022-09-30T16:09:57;3.35;;;1.30;;
69956;SDS011;57283;54.816;9.482;2022-09-30T16:12:26;4.15;;;1.55;;
69956;SDS011;57283;54.816;9.482;2022-09-30T16:14:55;3.70;;;1.60;;
69956;SDS011;57283;54.816;9.482;2022-09-30T16:17:26;3.70;;;1.50;;
69956;SDS011;57283;54.816;9.482;2022-09-30T16:19:56;4.30;;;1.48;;
69956;SDS011;57283;54.816;9.482;2022-09-30T16:22:34;3.40;;;1.50;;
69956;SDS011;57283;54.816;9.482;2022-09-30T16:25:07;3.67;;;1.30;;
69956;SDS011;57283;54.816;9.482;2022-09-30T16:27:37;4.80;;;1.65;;
69956;SDS011;57283;54.816;9.482;2022-09-30T16:30:05;3.70;;;1.50;;
69956;SDS011;57283;54.816;9.482;2022-09-30T16:32:36;4.15;;;1.70;;
69956;SDS011;57283;54.816;9.482;2022-09-30T16:35:05;4.45;;;1.75;;
69956;SDS011;57283;54.816;9.482;2022-09-30T16:37:33;3.78;;;1.75;;
69956;SDS011;57283;54.816;9.482;2022-09-30T16:40:08;3.70;;;1.70;;
69956;SDS011;57283;54.816;9.482;2022-09-30T16:42:41;4.50;;;1.40;;
69956;SDS011;57283;54.816;9.482;2022-09-30T16:45:10;3.53;;;1.52;;
69956;SDS011;57283;54.816;9.482;2022-09-30T16:47:39;4.25;;;1.70;;
69956;SDS011;57283;54.816;9.482;2022-09-30T16:50:18;4.97;;;2.10;;
69956;SDS011;57283;54.816;9.482;2022-09-30T16:52:46;4.30;;;1.77;;
69956;SDS011;57283;54.816;9.482;2022-09-30T16:55:14;5.90;;;2.20;;
69956;SDS011;57283;54.816;9.482;2022-09-30T16:57:42;4.57;;;1.90;;
69956;SDS011;57283;54.816;9.482;2022-09-30T17:00:11;5.13;;;1.77;;
69956;SDS011;57283;54.816;9.482;2022-09-30T17:02:42;4.80;;;1.98;;
69956;SDS011;57283;54.816;9.482;2022-09-30T17:05:11;4.70;;;2.00;;
69956;SDS011;57283;54.816;9.482;2022-09-30T17:07:38;4.47;;;2.03;;
69956;SDS011;57283;54.816;9.482;2022-09-30T17:10:08;4.70;;;2.20;;
69956;SDS011;57283;54.816;9.482;2022-09-30T17:12:35;6.30;;;2.38;;
69956;SDS011;57283;54.816;9.482;2022-09-30T17:15:04;5.50;;;2.05;;
69956;SDS011;57283;54.816;9.482;2022-09-30T17:17:31;4.10;;;2.08;;
69956;SDS011;57283;54.816;9.482;2022-09-30T17:20:00;4.73;;;2.27;;
69956;SDS011;57283;54.816;9.482;2022-09-30T17:22:28;5.05;;;2.05;;
69956;SDS011;57283;54.816;9.482;2022-09-30T17:24:56;6.55;;;2.28;;
69956;SDS011;57283;54.816;9.482;2022-09-30T17:27:24;4.95;;;2.13;;
69956;SDS011;57283;54.816;9.482;2022-09-30T17:29:52;5.00;;;2.50;;
69956;SDS011;57283;54.816;9.482;2022-09-30T17:32:20;5.47;;;2.40;;
69956;SDS011;57283;54.816;9.482;2022-09-30T17:34:48;6.13;;;2.67;;
69956;SDS011;57283;54.816;9.482;2022-09-30T17:37:17;4.70;;;2.47;;
69956;SDS011;57283;54.816;9.482;2022-09-30T17:39:45;4.85;;;2.45;;
69956;SDS011;57283;54.816;9.482;2022-09-30T17:42:13;5.50;;;2.40;;
69956;SDS011;57283;54.816;9.482;2022-09-30T17:44:58;7.07;;;2.30;;
69956;SDS011;57283;54.816;9.482;2022-09-30T17:47:26;6.82;;;2.67;;
69956;SDS011;57283;54.816;9.482;2022-09-30T17:49:53;5.65;;;2.70;;
69956;SDS011;57283;54.816;9.482;2022-09-30T17:52:22;6.35;;;2.70;;
69956;SDS011;57283;54.816;9.482;2022-09-30T17:54:50;4.85;;;2.45;;
69956;SDS011;57283;54.816;9.482;2022-09-30T17:57:18;5.73;;;2.80;;
69956;SDS011;57283;54.816;9.482;2022-09-30T17:59:46;6.22;;;2.67;;
69956;SDS011;57283;54.816;9.482;2022-09-30T18:02:13;5.50;;;2.70;;
69956;SDS011;57283;54.816;9.482;2022-09-30T18:04:42;6.15;;;3.20;;
69956;SDS011;57283;54.816;9.482;2022-09-30T18:07:10;6.25;;;3.10;;
69956;SDS011;57283;54.816;9.482;2022-09-30T18:09:40;6.50;;;3.20;;
69956;SDS011;57283;54.816;9.482;2022-09-30T18:12:07;6.45;;;3.42;;
69956;SDS011;57283;54.816;9.482;2022-09-30T18:14:35;6.95;;;3.45;;
69956;SDS011;57283;54.816;9.482;2022-09-30T18:17:03;5.90;;;3.30;;
69956;SDS011;57283;54.816;9.482;2022-09-30T18:19:32;7.70;;;3.67;;
69956;SDS011;57283;54.816;9.482;2022-09-30T18:22:00;9.27;;;3.77;;
69956;SDS011;57283;54.816;9.482;2022-09-30T18:24:28;6.90;;;3.60;;
69956;SDS011;57283;54.816;9.482;2022-09-30T18:27:14;6.63;;;3.65;;
69956;SDS011;57283;54.816;9.482;2022-09-30T18:29:42;6.10;;;3.47;;
69956;SDS011;57283;54.816;9.482;2022-09-30T18:32:09;6.20;;;3.80;;
69956;SDS011;57283;54.816;9.482;2022-09-30T18:34:37;6.20;;;3.57;;